createdAt,value
2018-08-31T00:01:02.366Z,101599.00
2018-08-31T00:08:57.127Z,101596.00
2018-08-31T00:15:01.080Z,101605.00
2018-08-31T00:21:04.702Z,101600.00
2018-08-31T00:27:24.861Z,101601.00
2018-08-31T00:35:51.388Z,101588.00
2018-08-31T00:42:09.008Z,101601.00
2018-08-31T00:48:12.370Z,101598.00
2018-08-31T00:54:16.525Z,101597.00
2018-08-31T01:00:20.705Z,101592.00
2018-08-31T01:06:24.309Z,101601.00
2018-08-31T01:12:27.714Z,101597.00
2018-08-31T01:18:31.606Z,101588.00
2018-08-31T01:24:35.876Z,101595.00
2018-08-31T01:30:39.501Z,101596.00
2018-08-31T01:36:43.042Z,101539.00
2018-08-31T01:42:46.403Z,101586.00
2018-08-31T01:48:50.197Z,101584.00
2018-08-31T01:54:53.760Z,101595.00
2018-08-31T02:00:57.234Z,101600.00
2018-08-31T02:07:01.255Z,101590.00
2018-08-31T02:13:04.573Z,101584.00
2018-08-31T02:19:08.704Z,101593.00
2018-08-31T02:25:12.297Z,101583.00
2018-08-31T02:31:15.972Z,101581.00
2018-08-31T02:37:19.602Z,101586.00
2018-08-31T02:43:23.929Z,101589.00
2018-08-31T02:49:28.203Z,101589.00
2018-08-31T02:55:32.030Z,101584.00
2018-08-31T03:01:36.054Z,101578.00
2018-08-31T03:07:39.465Z,101583.00
2018-08-31T03:13:43.364Z,101575.00
2018-08-31T03:19:46.830Z,101571.00
2018-08-31T03:25:50.344Z,101535.00
2018-08-31T03:31:54.006Z,101581.00
2018-08-31T03:37:57.597Z,101574.00
2018-08-31T03:44:01.031Z,101571.00
2018-08-31T03:50:04.859Z,101581.00
2018-08-31T03:56:08.204Z,101573.00
2018-08-31T04:02:11.934Z,101571.00
2018-08-31T04:08:15.542Z,101581.00
2018-08-31T04:14:19.082Z,101580.00
2018-08-31T04:20:23.098Z,101588.00
2018-08-31T04:26:26.946Z,101594.00
2018-08-31T04:32:31.511Z,101586.00
2018-08-31T04:38:34.942Z,101591.00
2018-08-31T04:44:38.919Z,101602.00
2018-08-31T04:50:42.947Z,101598.00
2018-08-31T04:56:46.496Z,101605.00
2018-08-31T05:02:50.335Z,101607.00
2018-08-31T05:08:53.952Z,101597.00
2018-08-31T05:14:57.363Z,101602.00
2018-08-31T05:21:00.919Z,101605.00
2018-08-31T05:27:11.129Z,101605.00
2018-08-31T05:33:15.471Z,101607.00
2018-08-31T05:39:19.123Z,101600.00
2018-08-31T05:45:22.837Z,101614.00
2018-08-31T05:51:27.377Z,101606.00
2018-08-31T05:57:31.656Z,101612.00
2018-08-31T06:03:35.499Z,101613.00
2018-08-31T06:09:39.226Z,101621.00
2018-08-31T06:15:42.803Z,101630.00
2018-08-31T06:21:46.512Z,101627.00
2018-08-31T06:27:50.484Z,101630.00
2018-08-31T06:33:54.059Z,101640.00
2018-08-31T06:39:57.890Z,101649.00
2018-08-31T06:46:02.097Z,101651.00
2018-08-31T06:52:05.835Z,101650.00
2018-08-31T06:58:09.522Z,101632.00
2018-08-31T07:04:13.370Z,101637.00
2018-08-31T07:10:17.634Z,101640.00
2018-08-31T07:16:21.550Z,101648.00
2018-08-31T07:22:25.199Z,101655.00
2018-08-31T07:28:28.561Z,101662.00
2018-08-31T07:34:32.425Z,101658.00
2018-08-31T07:40:35.871Z,101660.00
2018-08-31T07:46:39.262Z,101676.00
2018-08-31T07:52:42.762Z,101673.00
2018-08-31T07:58:46.551Z,101673.00
2018-08-31T08:04:50.947Z,101679.00
2018-08-31T08:10:55.083Z,101679.00
2018-08-31T08:16:58.984Z,101678.00
2018-08-31T08:23:02.593Z,101679.00
2018-08-31T08:29:06.431Z,101679.00
2018-08-31T08:35:10.023Z,101682.00
2018-08-31T08:41:13.810Z,101688.00
2018-08-31T08:47:18.249Z,101682.00
2018-08-31T08:53:21.978Z,101685.00
2018-08-31T08:59:25.458Z,101694.00
2018-08-31T09:05:29.131Z,101684.00
2018-08-31T09:11:32.657Z,101688.00
2018-08-31T09:17:36.487Z,101677.00
2018-08-31T09:23:40.249Z,101683.00
2018-08-31T09:29:43.674Z,101680.00
2018-08-31T09:35:47.371Z,101674.00
2018-08-31T09:41:51.696Z,101677.00
2018-08-31T09:47:55.465Z,101672.00
2018-08-31T09:53:59.791Z,101666.00
2018-08-31T10:00:03.532Z,101663.00
2018-08-31T10:06:07.392Z,101661.00
2018-08-31T10:12:11.822Z,101664.00
2018-08-31T10:18:15.634Z,101653.00
2018-08-31T10:24:19.635Z,101650.00
2018-08-31T10:30:23.010Z,101662.00
2018-08-31T10:36:26.706Z,101663.00
2018-08-31T10:42:30.904Z,101657.00
2018-08-31T10:48:34.553Z,101655.00
2018-08-31T10:54:38.153Z,101660.00
2018-08-31T11:00:41.997Z,101661.00
2018-08-31T11:06:45.886Z,101651.00
2018-08-31T11:12:49.559Z,101653.00
2018-08-31T11:18:53.551Z,101652.00
2018-08-31T11:24:57.756Z,101648.00
2018-08-31T11:31:02.405Z,101638.00
2018-08-31T11:37:07.602Z,101639.00
2018-08-31T11:43:11.291Z,101636.00
2018-08-31T11:49:15.244Z,101645.00
2018-08-31T11:55:18.806Z,101624.00
2018-08-31T12:01:22.543Z,101637.00
2018-08-31T12:07:27.403Z,101631.00
2018-08-31T12:13:31.916Z,101623.00
2018-08-31T12:19:35.855Z,101626.00
2018-08-31T12:25:39.708Z,101617.00
2018-08-31T12:31:43.161Z,101620.00
2018-08-31T12:37:46.996Z,101638.00
2018-08-31T12:43:51.074Z,101624.00
2018-08-31T12:49:55.328Z,101625.00
2018-08-31T12:55:58.997Z,101626.00
2018-08-31T13:02:02.836Z,101627.00
2018-08-31T13:08:07.177Z,101618.00
2018-08-31T13:14:12.777Z,101619.00
2018-08-31T13:20:17.004Z,101602.00
2018-08-31T13:26:21.651Z,101601.00
2018-08-31T13:32:25.423Z,101600.00
2018-08-31T13:38:29.478Z,101586.00
2018-08-31T13:44:32.980Z,101592.00
2018-08-31T13:50:36.746Z,101582.00
2018-08-31T13:56:40.686Z,101588.00
2018-08-31T14:02:44.474Z,101586.00
2018-08-31T14:08:48.281Z,101586.00
2018-08-31T14:14:52.254Z,101596.00
2018-08-31T14:20:57.512Z,101587.00
2018-08-31T14:27:01.229Z,101587.00
2018-08-31T14:33:05.541Z,101594.00
2018-08-31T14:39:10.086Z,101595.00
2018-08-31T14:45:13.803Z,101578.00
2018-08-31T14:51:17.356Z,101587.00
2018-08-31T14:57:20.866Z,101586.00
2018-08-31T15:03:24.674Z,101596.00
2018-08-31T15:09:29.163Z,101590.00
2018-08-31T15:15:33.261Z,101590.00
2018-08-31T15:21:37.618Z,101597.00
2018-08-31T15:27:42.146Z,101589.00
2018-08-31T15:33:46.176Z,101592.00
2018-08-31T15:39:49.846Z,101596.00
2018-08-31T15:45:53.946Z,101587.00
2018-08-31T15:51:57.444Z,101582.00
2018-08-31T15:58:02.525Z,101592.00
2018-08-31T16:04:06.044Z,101586.00
2018-08-31T16:10:10.373Z,101588.00
2018-08-31T16:16:13.945Z,101593.00
2018-08-31T16:22:20.558Z,101603.00
2018-08-31T16:28:24.950Z,101595.00
2018-08-31T16:34:29.621Z,101593.00
2018-08-31T16:40:33.829Z,101594.00
2018-08-31T16:46:41.238Z,101602.00
2018-08-31T16:52:44.916Z,101597.00
2018-08-31T16:58:49.264Z,101617.00
2018-08-31T17:04:53.614Z,101614.00
2018-08-31T17:11:00.498Z,101613.00
2018-08-31T17:17:04.107Z,101619.00
2018-08-31T17:23:07.829Z,101626.00
2018-08-31T17:29:17.146Z,101626.00
2018-08-31T17:35:27.413Z,101639.00
2018-08-31T17:41:35.762Z,101641.00
2018-08-31T17:47:40.279Z,101646.00
2018-08-31T17:53:45.338Z,101656.00
2018-08-31T17:59:49.058Z,101665.00
2018-08-31T18:05:53.235Z,101669.00
2018-08-31T18:11:57.618Z,101667.00
2018-08-31T18:18:07.491Z,101678.00
2018-08-31T18:24:11.020Z,101689.00
2018-08-31T18:30:20.726Z,101682.00
2018-08-31T18:36:24.846Z,101690.00
2018-08-31T18:42:30.017Z,101691.00
2018-08-31T18:48:33.881Z,101700.00
2018-08-31T18:54:37.979Z,101700.00
2018-08-31T19:00:42.998Z,101693.00
2018-08-31T19:06:47.062Z,101718.00
2018-08-31T19:12:51.299Z,101721.00
2018-08-31T19:18:55.534Z,101730.00
2018-08-31T19:24:59.893Z,101731.00
2018-08-31T19:31:05.120Z,101736.00
2018-08-31T19:37:08.797Z,101742.00
2018-08-31T19:43:12.810Z,101738.00
2018-08-31T19:49:17.713Z,101742.00
2018-08-31T19:55:22.309Z,101742.00
2018-08-31T20:01:26.960Z,101752.00
2018-08-31T20:07:32.894Z,101761.00
2018-08-31T20:13:43.078Z,101767.00
2018-08-31T20:19:46.794Z,101764.00
2018-08-31T20:25:50.557Z,101774.00
2018-08-31T20:31:54.546Z,101774.00
2018-08-31T20:37:59.123Z,101782.00
2018-08-31T20:44:03.753Z,101781.00
2018-08-31T20:50:08.721Z,101780.00
2018-08-31T20:56:12.996Z,101781.00
2018-08-31T21:02:20.507Z,101786.00
2018-08-31T21:08:24.285Z,101798.00
2018-08-31T21:14:28.529Z,101801.00
2018-08-31T21:20:32.154Z,101802.00
2018-08-31T21:26:36.143Z,101805.00
2018-08-31T21:32:41.275Z,101812.00
2018-08-31T21:38:46.215Z,101812.00
2018-08-31T21:44:49.849Z,101816.00
2018-08-31T21:50:53.669Z,101816.00
2018-08-31T21:56:57.631Z,101820.00
2018-08-31T22:03:01.713Z,101814.00
2018-08-31T22:09:08.511Z,101816.00
2018-08-31T22:15:27.683Z,101816.00
2018-08-31T22:21:31.273Z,101818.00
2018-08-31T22:27:35.086Z,101809.00
2018-08-31T22:33:38.570Z,101817.00
2018-08-31T22:39:42.342Z,101810.00
2018-08-31T22:45:46.149Z,101813.00
2018-08-31T22:51:49.935Z,101817.00
2018-08-31T22:57:54.203Z,101807.00
2018-08-31T23:03:58.866Z,101804.00
2018-08-31T23:10:02.406Z,101816.00
2018-08-31T23:16:06.468Z,101819.00
2018-08-31T23:22:10.190Z,101820.00
2018-08-31T23:28:13.884Z,101823.00
2018-08-31T23:34:17.395Z,101823.00
2018-08-31T23:40:21.506Z,101823.00
2018-08-31T23:46:24.901Z,101829.00
2018-08-31T23:52:28.631Z,101819.00
2018-08-31T23:58:32.400Z,101831.00
